Time;durP1;ratioP1;P1;durP2;ratioP2;P2;SDS_P1;SDS_P2;PMS_P1;PMS_P2;Temp;Humidity;BMP_temperature;BMP_pressure;BME280_temperature;BME280_humidity;BME280_pressure;Samples;Min_cycle;Max_cycle;Signal;HPM_P1;HPM_P2
2022/12/22 03:28:30;;;;;;;2.22;0.80;;;14.90;76.30;;;;;;2344778;53;20966;-76
2022/12/22 03:31:01;;;;;;;2.22;0.60;;;14.90;75.60;;;;;;2333736;53;20945;-76
2022/12/22 03:33:27;;;;;;;1.83;0.62;;;14.90;76.00;;;;;;2345240;53;21730;-76
2022/12/22 03:36:00;;;;;;;2.75;0.60;;;15.00;76.20;;;;;;2539446;52;20936;-76
2022/12/22 03:38:26;;;;;;;2.08;0.60;;;14.90;75.70;;;;;;2395756;53;21448;-76
2022/12/22 03:40:52;;;;;;;1.87;0.62;;;15.00;76.10;;;;;;2363997;53;20938;-76
2022/12/22 03:46:30;;;;;;;2.15;0.50;;;15.00;75.30;;;;;;2369147;53;21025;-76
2022/12/22 03:49:09;;;;;;;1.35;0.50;;;15.00;75.70;;;;;;2372887;52;20992;-76
2022/12/22 03:51:46;;;;;;;2.95;0.73;;;15.00;75.70;;;;;;2381253;53;21280;-76
2022/12/22 03:54:14;;;;;;;2.00;0.50;;;15.00;75.30;;;;;;2543074;52;21189;-76
2022/12/22 03:56:48;;;;;;;4.03;0.80;;;15.00;75.60;;;;;;2368177;53;21527;-76
2022/12/22 03:59:14;;;;;;;;;;;14.90;75.20;;;;;;2371991;53;20933;-76
2022/12/22 04:01:42;;;;;;;2.10;0.57;;;15.00;74.60;;;;;;2493472;52;20096;-76
2022/12/22 04:04:09;;;;;;;3.22;0.80;;;14.90;75.40;;;;;;2369554;53;20906;-76
2022/12/22 04:06:36;;;;;;;2.65;0.70;;;15.00;75.50;;;;;;2369180;53;21599;-76
2022/12/22 04:09:11;;;;;;;2.25;0.65;;;15.00;75.50;;;;;;2361742;53;20965;-76
2022/12/22 04:14:22;;;;;;;2.87;1.00;;;14.90;75.50;;;;;;2344045;53;20953;-75
2022/12/22 04:16:52;;;;;;;1.73;0.60;;;14.90;75.50;;;;;;2341668;53;20921;-76
2022/12/22 04:19:18;;;;;;;3.50;0.70;;;14.80;75.40;;;;;;2369200;53;20941;-76
2022/12/22 04:21:44;;;;;;;5.80;0.82;;;14.90;75.60;;;;;;2370067;53;20943;-76
2022/12/22 04:24:13;;;;;;;3.45;0.90;;;14.90;75.60;;;;;;2368669;53;20938;-76
2022/12/22 04:26:40;;;;;;;4.00;1.02;;;14.90;75.50;;;;;;2435612;52;20910;-76
2022/12/22 04:29:09;;;;;;;5.93;1.37;;;14.90;75.60;;;;;;2369863;53;20942;-75
2022/12/22 04:31:36;;;;;;;2.70;0.70;;;15.00;75.50;;;;;;2370209;53;20915;-76
2022/12/22 04:34:03;;;;;;;2.22;0.68;;;15.00;75.70;;;;;;2369213;53;20918;-75
2022/12/22 04:36:29;;;;;;;3.55;0.80;;;14.90;75.60;;;;;;2470719;52;21018;-76
2022/12/22 04:38:58;;;;;;;5.85;1.00;;;14.90;75.50;;;;;;2388769;53;20976;-76
2022/12/22 04:41:25;;;;;;;3.58;0.80;;;15.00;75.40;;;;;;2342513;53;21001;-76
2022/12/22 04:43:51;;;;;;;2.30;0.90;;;14.90;75.50;;;;;;2404222;52;20973;-75
2022/12/22 04:46:58;;;;;;;3.62;0.90;;;14.90;75.50;;;;;;2341544;53;20964;-76
2022/12/22 04:49:24;;;;;;;4.45;1.08;;;15.00;74.80;;;;;;2344551;53;20984;-76
2022/12/22 04:51:50;;;;;;;3.90;0.80;;;15.00;75.50;;;;;;2342208;53;20920;-76
2022/12/22 04:54:17;;;;;;;5.20;0.85;;;15.00;75.40;;;;;;2347696;53;20965;-76
2022/12/22 04:56:44;;;;;;;3.45;0.88;;;15.00;75.50;;;;;;2407878;52;21668;-76
2022/12/22 04:59:10;;;;;;;6.10;0.98;;;15.00;75.50;;;;;;2373902;53;21437;-76
2022/12/22 05:01:36;;;;;;;4.45;0.93;;;15.00;75.50;;;;;;2341342;53;20921;-75
2022/12/22 05:04:06;;;;;;;3.50;0.95;;;15.00;75.40;;;;;;2374867;53;20937;-76
2022/12/22 05:07:19;;;;;;;4.32;0.93;;;15.00;75.40;;;;;;2457910;52;20965;-76
2022/12/22 05:09:45;;;;;;;6.22;0.98;;;15.00;74.40;;;;;;2342529;53;21000;-76
2022/12/22 05:14:56;;;;;;;3.40;1.37;;;15.00;75.20;;;;;;2345885;53;20917;-76
2022/12/22 05:17:22;;;;;;;2.62;0.85;;;15.00;75.30;;;;;;2354993;53;21064;-76
2022/12/22 05:19:49;;;;;;;6.15;1.00;;;15.10;75.30;;;;;;2346193;53;21935;-76
2022/12/22 05:22:15;;;;;;;4.87;0.93;;;15.10;75.30;;;;;;2341013;53;20933;-76
2022/12/22 05:25:07;;;;;;;4.82;0.95;;;15.00;75.20;;;;;;2588937;52;21882;-76
2022/12/22 05:27:36;;;;;;;3.25;0.82;;;15.00;74.30;;;;;;2588403;52;20968;-75
2022/12/22 05:30:03;;;;;;;5.20;1.00;;;15.00;75.00;;;;;;2341608;53;20956;-75
2022/12/22 05:32:32;;;;;;;3.60;1.20;;;15.00;75.10;;;;;;2341654;53;21805;-75
2022/12/22 05:35:00;;;;;;;7.22;1.30;;;15.10;75.10;;;;;;2496373;52;21529;-76
2022/12/22 05:37:26;;;;;;;4.55;1.37;;;15.10;75.20;;;;;;2348490;53;21457;-76
2022/12/22 05:39:53;;;;;;;7.12;1.20;;;15.10;75.30;;;;;;2341659;53;21013;-75
2022/12/22 05:42:34;;;;;;;4.37;1.17;;;15.10;75.20;;;;;;2341501;53;20952;-76
2022/12/22 05:45:03;;;;;;;5.18;0.85;;;15.10;75.20;;;;;;2341261;53;20952;-76
2022/12/22 05:47:29;;;;;;;5.22;1.23;;;15.10;75.10;;;;;;2369460;53;20917;-76
2022/12/22 05:49:55;;;;;;;6.28;1.52;;;15.10;75.20;;;;;;2588043;52;21467;-75
2022/12/22 05:52:34;;;;;;;5.03;1.12;;;15.10;75.20;;;;;;2341234;53;20898;-76
2022/12/22 05:55:00;;;;;;;4.00;1.00;;;15.10;74.50;;;;;;2341041;54;21040;-75
2022/12/22 05:57:26;;;;;;;7.43;1.00;;;15.10;75.10;;;;;;2357503;53;20938;-76
2022/12/22 05:59:52;;;;;;;5.25;1.00;;;15.10;75.00;;;;;;2367984;53;20922;-76
2022/12/22 06:02:20;;;;;;;5.60;1.15;;;15.20;75.10;;;;;;2368799;53;21035;-76
2022/12/22 06:04:46;;;;;;;4.57;1.02;;;15.20;75.00;;;;;;2369761;53;20947;-76
2022/12/22 06:07:15;;;;;;;4.95;1.20;;;15.10;74.90;;;;;;2443486;52;22000;-76
2022/12/22 06:09:41;;;;;;;4.82;1.15;;;15.20;74.90;;;;;;2369752;53;21551;-76
2022/12/22 06:12:08;;;;;;;5.72;1.48;;;15.20;74.90;;;;;;2502315;52;21062;-76
2022/12/22 06:14:35;;;;;;;5.03;1.45;;;15.20;74.80;;;;;;2369822;53;20939;-75
2022/12/22 06:17:02;;;;;;;8.25;1.27;;;15.20;74.80;;;;;;2408644;52;21387;-76
2022/12/22 06:19:28;;;;;;;6.55;1.17;;;15.20;74.80;;;;;;2622275;52;21188;-75
2022/12/22 06:21:55;;;;;;;5.50;1.55;;;15.20;74.60;;;;;;2341545;53;20992;-76
2022/12/22 06:24:21;;;;;;;3.97;0.93;;;15.20;74.50;;;;;;2340623;53;20913;-76
2022/12/22 06:27:11;;;;;;;5.35;1.10;;;15.20;74.60;;;;;;2373481;53;21444;-76
2022/12/22 06:29:37;;;;;;;5.30;1.08;;;15.20;73.60;;;;;;2401030;52;20993;-77
2022/12/22 06:32:03;;;;;;;6.47;1.05;;;15.20;74.50;;;;;;2370260;53;20965;-76
2022/12/22 06:34:30;;;;;;;7.90;1.60;;;15.20;74.60;;;;;;2369403;53;20972;-76
2022/12/22 06:36:56;;;;;;;4.75;1.30;;;15.20;74.50;;;;;;2622221;52;21400;-75
2022/12/22 06:39:22;;;;;;;4.85;0.82;;;15.20;75.20;;;;;;2426142;52;20946;-76
2022/12/22 06:44:33;;;;;;;6.95;0.93;;;15.20;74.60;;;;;;2368707;53;20954;-76
2022/12/22 06:47:00;;;;;;;4.87;1.00;;;15.20;74.50;;;;;;2359920;53;21486;-75
2022/12/22 06:49:27;;;;;;;6.72;1.00;;;15.20;74.50;;;;;;2370365;53;20975;-76
2022/12/22 06:51:53;;;;;;;4.35;1.00;;;15.20;74.30;;;;;;2369611;53;21460;-75
2022/12/22 06:57:48;;;;;;;4.40;1.10;;;15.20;73.50;;;;;;2369947;53;21808;-76
2022/12/22 07:00:14;;;;;;;7.15;1.27;;;15.20;74.50;;;;;;2441701;52;20926;-76
2022/12/22 07:02:40;;;;;;;7.43;1.48;;;15.20;74.50;;;;;;2370336;53;21493;-76
2022/12/22 07:05:07;;;;;;;6.87;1.70;;;15.20;74.40;;;;;;2568354;52;20934;-76
2022/12/22 07:11:13;;;;;;;4.90;1.05;;;15.20;73.50;;;;;;2363396;53;20946;-76
2022/12/22 07:14:34;;;;;;;9.35;1.58;;;15.20;74.50;;;;;;2368896;53;20961;-76
2022/12/22 07:17:00;;;;;;;7.12;1.17;;;15.20;73.50;;;;;;2370216;53;20910;-75
2022/12/22 07:19:29;;;;;;;3.37;1.08;;;15.20;74.50;;;;;;2369740;53;21616;-76
2022/12/22 07:21:55;;;;;;;7.75;1.42;;;15.20;74.50;;;;;;2370049;53;20925;-76
2022/12/22 07:24:24;;;;;;;5.70;1.42;;;15.20;74.50;;;;;;2357583;53;21030;-76
2022/12/22 07:27:43;;;;;;;5.60;1.30;;;15.20;74.50;;;;;;2476030;52;20922;-76
2022/12/22 07:30:09;;;;;;;5.75;1.20;;;15.20;73.50;;;;;;2620339;52;20958;-76
2022/12/22 07:33:02;;;;;;;5.72;1.30;;;15.20;74.40;;;;;;2370332;53;21013;-77
2022/12/22 07:35:32;;;;;;;7.53;1.42;;;15.20;73.50;;;;;;2369419;53;20922;-76
2022/12/22 07:37:59;;;;;;;3.42;0.90;;;15.20;74.50;;;;;;2368583;53;20906;-76
2022/12/22 07:40:26;;;;;;;7.85;1.20;;;15.20;74.40;;;;;;2369280;53;20997;-75
2022/12/22 07:42:58;;;;;;;4.80;0.88;;;15.20;74.30;;;;;;2382699;52;20926;-75
2022/12/22 07:45:24;;;;;;;4.55;1.00;;;15.20;74.10;;;;;;2369053;53;21367;-76
2022/12/22 07:47:50;;;;;;;3.62;0.90;;;15.20;74.30;;;;;;2621183;52;21492;-76
2022/12/22 07:50:24;;;;;;;5.95;0.90;;;15.20;74.40;;;;;;2368376;53;21455;-76
2022/12/22 07:52:51;;;;;;;2.12;0.65;;;15.20;74.30;;;;;;2369622;53;21400;-76
2022/12/22 07:55:19;;;;;;;2.90;0.60;;;15.20;74.40;;;;;;2368641;53;20990;-76
2022/12/22 07:57:46;;;;;;;3.62;0.93;;;15.20;74.40;;;;;;2369862;53;20938;-75
2022/12/22 08:00:14;;;;;;;6.55;1.15;;;15.10;74.30;;;;;;2367912;53;20982;-76
2022/12/22 08:02:41;;;;;;;3.35;0.55;;;15.20;74.50;;;;;;2369320;53;20942;-75
2022/12/22 08:05:08;;;;;;;4.60;0.90;;;15.10;74.50;;;;;;2585753;52;20946;-76
2022/12/22 08:08:03;;;;;;;4.47;0.90;;;15.20;74.70;;;;;;2531979;52;20994;-75
2022/12/22 08:10:31;;;;;;;3.20;0.82;;;15.20;73.70;;;;;;2368924;53;21408;-75
2022/12/22 08:12:57;;;;;;;5.15;1.10;;;15.20;74.80;;;;;;2431279;52;21709;-75
2022/12/22 08:15:24;;;;;;;8.57;1.30;;;15.20;74.80;;;;;;2509890;52;21565;-76
2022/12/22 08:17:50;;;;;;;4.57;1.00;;;15.20;74.60;;;;;;2369630;53;21006;-76
2022/12/22 08:20:16;;;;;;;4.55;0.90;;;15.20;74.50;;;;;;2449609;52;20974;-75
2022/12/22 08:22:42;;;;;;;3.55;0.85;;;15.20;74.50;;;;;;2561822;52;20934;-75
2022/12/22 08:25:09;;;;;;;4.70;1.23;;;15.20;74.40;;;;;;2368392;53;20935;-75
2022/12/22 08:27:53;;;;;;;3.75;1.05;;;15.20;74.40;;;;;;2522330;52;21047;-75
2022/12/22 08:30:19;;;;;;;4.97;1.10;;;15.20;73.50;;;;;;2353815;53;20942;-76
2022/12/22 08:32:47;;;;;;;5.72;1.30;;;15.20;74.30;;;;;;2369323;53;21909;-75
2022/12/22 08:35:13;;;;;;;5.60;1.12;;;15.20;74.20;;;;;;2368113;53;21363;-75
2022/12/22 08:37:40;;;;;;;3.78;0.90;;;15.20;74.20;;;;;;2369361;53;20946;-76
2022/12/22 08:40:22;;;;;;;3.92;0.82;;;15.20;74.10;;;;;;2369024;53;21490;-76
2022/12/22 08:42:50;;;;;;;3.80;0.83;;;15.20;73.30;;;;;;2369040;53;21017;-76
2022/12/22 08:45:25;;;;;;;4.75;1.00;;;15.20;74.10;;;;;;2449089;52;21093;-76
2022/12/22 08:47:51;;;;;;;5.20;1.00;;;15.30;73.60;;;;;;2447565;52;21443;-76
2022/12/22 08:50:17;;;;;;;6.20;1.15;;;15.20;74.20;;;;;;2368303;53;20931;-76
2022/12/22 08:52:44;;;;;;;4.12;1.00;;;15.20;74.10;;;;;;2369480;53;20938;-76
2022/12/22 08:55:11;;;;;;;6.40;1.10;;;15.20;74.20;;;;;;2368048;53;21001;-76
2022/12/22 09:00:58;;;;;;;3.65;1.00;;;15.20;73.10;;;;;;2376928;52;20946;-76
2022/12/22 09:03:24;;;;;;;4.22;0.95;;;15.20;74.10;;;;;;2369000;53;20910;-76
2022/12/22 09:05:51;;;;;;;5.78;0.90;;;15.20;74.00;;;;;;2368411;53;21001;-75
2022/12/22 09:08:18;;;;;;;5.30;1.10;;;15.20;74.00;;;;;;2367781;53;21041;-75
2022/12/22 09:10:44;;;;;;;5.68;1.20;;;15.10;73.90;;;;;;2368853;53;20953;-75
2022/12/22 09:13:11;;;;;;;5.18;0.98;;;15.10;74.00;;;;;;2615333;52;21368;-76
2022/12/22 09:15:38;;;;;;;2.78;0.90;;;15.10;74.00;;;;;;2367942;53;20980;-76
2022/12/22 09:18:05;;;;;;;8.15;1.42;;;15.10;74.10;;;;;;2395217;52;21049;-75
2022/12/22 09:20:31;;;;;;;4.55;1.00;;;15.10;74.10;;;;;;2375631;52;20977;-75
2022/12/22 09:23:25;;;;;;;4.22;1.20;;;15.10;74.10;;;;;;2620559;52;20951;-76
2022/12/22 09:25:51;;;;;;;5.37;1.48;;;15.10;73.30;;;;;;2386886;52;20910;-75
2022/12/22 09:28:20;;;;;;;8.48;1.45;;;15.10;74.20;;;;;;2621709;52;20934;-76
2022/12/22 09:30:52;;;;;;;6.32;1.10;;;15.10;74.20;;;;;;2369444;53;22093;-76
2022/12/22 09:33:52;;;;;;;6.20;1.40;;;15.10;74.00;;;;;;2368220;53;20987;-75
2022/12/22 09:36:21;;;;;;;6.80;1.23;;;15.10;73.50;;;;;;2372848;52;20950;-76
2022/12/22 09:38:48;;;;;;;8.80;2.00;;;15.10;74.20;;;;;;2370431;53;20930;-76
2022/12/22 09:42:22;;;;;;;8.75;1.83;;;15.10;74.30;;;;;;2367612;53;20986;-78
2022/12/22 09:44:50;;;;;;;6.55;1.40;;;15.10;73.90;;;;;;2369155;53;21014;-76
2022/12/22 09:48:03;;;;;;;6.07;1.30;;;15.10;74.50;;;;;;2399514;52;22759;-76
2022/12/22 09:53:36;;;;;;;6.78;1.50;;;15.10;73.10;;;;;;2349999;54;20121;-75
2022/12/22 09:56:03;;;;;;;7.97;1.80;;;15.10;74.50;;;;;;2369189;53;20906;-76
2022/12/22 09:58:33;;;;;;;5.20;1.42;;;15.10;74.50;;;;;;2429499;52;22543;-76
2022/12/22 10:04:21;;;;;;;9.73;1.83;;;15.10;74.40;;;;;;2368376;53;22409;-76
2022/12/22 10:07:19;;;;;;;8.43;1.90;;;15.20;73.30;;;;;;2369587;53;21416;-76
2022/12/22 10:09:45;;;;;;;7.78;2.03;;;15.20;73.80;;;;;;2369835;53;20931;-76
2022/12/22 10:12:20;;;;;;;6.37;1.77;;;15.20;74.60;;;;;;2371083;53;20985;-75
2022/12/22 10:14:50;;;;;;;9.27;1.90;;;15.20;74.30;;;;;;2369866;53;20986;-76
2022/12/22 10:17:31;;;;;;;7.75;1.77;;;15.20;74.20;;;;;;2370818;52;21665;-76
2022/12/22 10:20:34;;;;;;;5.90;1.45;;;15.20;74.10;;;;;;2368939;53;20946;-75
2022/12/22 10:23:01;;;;;;;9.30;1.60;;;15.20;73.80;;;;;;2368868;53;20950;-76
2022/12/22 10:26:02;;;;;;;8.13;1.60;;;15.20;74.60;;;;;;2621592;52;20916;-75
2022/12/22 10:29:09;;;;;;;6.78;1.77;;;15.20;74.00;;;;;;2483600;52;20993;-75
2022/12/22 10:31:54;;;;;;;6.18;1.45;;;15.20;74.20;;;;;;2368430;53;21007;-75
2022/12/22 10:34:26;;;;;;;8.25;2.40;;;15.20;74.70;;;;;;2368064;53;20938;-75
2022/12/22 10:36:55;;;;;;;10.13;2.12;;;15.20;74.30;;;;;;2568855;52;21026;-76
2022/12/22 10:39:27;;;;;;;10.68;1.80;;;15.20;74.50;;;;;;2367704;53;21049;-75
2022/12/22 10:42:08;;;;;;;7.90;1.63;;;15.20;74.40;;;;;;2599332;52;20926;-74
2022/12/22 10:44:36;;;;;;;5.75;1.12;;;15.20;74.40;;;;;;2370096;52;21493;-75
2022/12/22 10:47:18;;;;;;;9.80;1.80;;;15.20;74.70;;;;;;2369311;53;20910;-76
2022/12/22 10:49:45;;;;;;;8.27;1.52;;;15.20;74.10;;;;;;2369618;53;21468;-75
2022/12/22 10:52:34;;;;;;;11.20;1.70;;;15.20;74.50;;;;;;2621319;52;21245;-76
2022/12/22 10:58:42;;;;;;;8.15;1.23;;;15.20;73.80;;;;;;2369656;53;20995;-76
2022/12/22 11:01:09;;;;;;;4.60;1.17;;;15.20;73.40;;;;;;2336583;54;21000;-75
2022/12/22 11:03:44;;;;;;;4.78;1.30;;;15.20;74.50;;;;;;2339768;53;20960;-78
2022/12/22 11:06:11;;;;;;;5.68;1.40;;;15.20;74.00;;;;;;2530886;52;20985;-75
2022/12/22 11:08:38;;;;;;;7.35;1.90;;;15.20;74.50;;;;;;2342003;53;21458;-77
2022/12/22 11:11:09;;;;;;;5.85;1.20;;;15.20;74.60;;;;;;2341194;53;20961;-77
2022/12/22 11:17:12;;;;;;;5.28;1.15;;;15.20;74.70;;;;;;2403511;52;21022;-75
2022/12/22 11:22:55;;;;;;;4.47;1.08;;;15.20;73.40;;;;;;2378870;53;21300;-77
2022/12/22 11:26:00;;;;;;;3.67;0.93;;;15.20;73.40;;;;;;2467067;52;21016;-78
2022/12/22 11:33:39;;;;;;;4.90;1.10;;;15.20;74.10;;;;;;2340509;53;21521;-77
2022/12/22 11:36:10;;;;;;;3.37;0.70;;;15.20;73.50;;;;;;2360299;52;22013;-75
2022/12/22 11:38:56;;;;;;;4.47;0.85;;;15.20;74.70;;;;;;2622019;52;20974;-78
2022/12/22 11:44:49;;;;;;;4.28;1.00;;;15.20;73.80;;;;;;2453761;52;21006;-78
2022/12/22 11:49:09;;;;;;;6.93;1.52;;;15.20;73.80;;;;;;2249611;53;7218771;-74
2022/12/22 11:56:44;;;;;;;3.72;1.00;;;15.20;73.80;;;;;;2368764;53;21428;-78
2022/12/22 11:59:29;;;;;;;6.60;1.10;;;15.30;73.70;;;;;;2348686;53;21072;-77
2022/12/22 12:02:18;;;;;;;4.47;1.02;;;15.30;74.40;;;;;;2548941;52;20946;-76
2022/12/22 12:07:39;;;;;;;7.12;1.20;;;15.30;74.20;;;;;;2350120;54;20954;-76
2022/12/22 12:10:34;;;;;;;5.85;1.20;;;15.30;73.60;;;;;;2368226;53;20973;-75
2022/12/22 12:13:37;;;;;;;6.78;1.42;;;15.40;74.20;;;;;;2369587;53;20966;-76
2022/12/22 12:16:17;;;;;;;7.30;1.48;;;15.40;74.20;;;;;;2349025;53;20986;-76
2022/12/22 12:21:25;;;;;;;4.65;1.35;;;15.30;74.60;;;;;;2384711;52;21326;-77
2022/12/22 12:27:59;;;;;;;12.20;2.72;;;15.40;73.60;;;;;;2369157;53;21005;-76
2022/12/22 12:30:26;;;;;;;7.97;2.25;;;15.40;73.60;;;;;;2367761;53;20934;-75
2022/12/22 12:34:11;;;;;;;9.93;2.35;;;15.40;74.90;;;;;;2368049;53;20977;-77
2022/12/22 12:36:54;;;;;;;6.10;2.08;;;15.40;73.30;;;;;;2367947;53;21403;-78
2022/12/22 12:39:40;;;;;;;;;;;15.40;74.50;;;;;;2371716;53;20938;-75
2022/12/22 12:42:56;;;;;;;4.68;1.30;;;15.40;73.40;;;;;;2369381;53;20122;-76
2022/12/22 12:46:41;;;;;;;7.90;2.08;;;15.40;74.50;;;;;;2405802;52;20938;-75
2022/12/22 12:52:03;;;;;;;8.27;1.65;;;15.50;73.70;;;;;;2386636;52;21273;-76
2022/12/22 12:54:42;;;;;;;6.10;1.25;;;15.40;74.10;;;;;;2368983;53;20922;-75
2022/12/22 12:57:28;;;;;;;7.00;1.48;;;15.50;74.70;;;;;;2368386;53;21471;-76
2022/12/22 12:59:58;;;;;;;10.05;1.60;;;15.50;75.10;;;;;;2369002;53;20966;-75
2022/12/22 13:02:34;;;;;;;6.18;1.58;;;15.50;75.00;;;;;;2573330;52;20927;-76
2022/12/22 13:06:47;;;;;;;10.90;2.83;;;15.50;74.70;;;;;;2621071;52;21325;-76
2022/12/22 13:09:26;;;;;;;8.93;2.37;;;15.50;73.60;;;;;;2370213;53;21315;-76
2022/12/22 13:15:00;;;;;;;7.18;2.30;;;15.50;74.60;;;;;;2490702;52;21831;-76
2022/12/22 13:17:48;;;;;;;6.72;1.80;;;15.50;73.50;;;;;;2434729;52;20911;-76
2022/12/22 13:20:20;;;;;;;11.48;3.20;;;15.50;74.30;;;;;;2367465;53;20918;-78
2022/12/22 13:22:53;;;;;;;12.35;2.83;;;15.50;74.90;;;;;;2366638;53;21001;-76
2022/12/22 13:25:19;;;;;;;13.82;2.72;;;15.50;74.80;;;;;;2341336;53;21403;-75
2022/12/22 13:27:47;;;;;;;12.75;3.95;;;15.50;75.00;;;;;;2387706;53;21066;-75
2022/12/22 13:30:23;;;;;;;9.65;3.00;;;15.50;74.90;;;;;;2588042;52;20934;-77
2022/12/22 13:32:50;;;;;;;12.10;3.12;;;15.50;74.40;;;;;;2341324;54;20943;-78
2022/12/22 13:35:21;;;;;;;13.88;2.80;;;15.50;74.70;;;;;;2583704;52;20941;-76
2022/12/22 13:37:56;;;;;;;12.90;2.65;;;15.50;74.40;;;;;;2343678;53;20996;-77
2022/12/22 13:40:24;;;;;;;14.50;3.33;;;15.50;74.50;;;;;;2587707;52;20969;-75
2022/12/22 13:42:55;;;;;;;7.95;2.28;;;15.40;74.30;;;;;;2342518;53;21319;-75
2022/12/22 13:45:36;;;;;;;11.85;2.97;;;15.40;74.30;;;;;;2542421;52;21404;-77
2022/12/22 13:48:14;;;;;;;10.50;2.80;;;15.40;73.80;;;;;;2399109;52;21362;-76
2022/12/22 13:50:50;;;;;;;9.77;2.75;;;15.40;74.20;;;;;;2349885;53;21024;-76
2022/12/22 13:53:51;;;;;;;9.65;3.00;;;15.30;74.00;;;;;;2486180;53;21523;-78
2022/12/22 13:56:48;;;;;;;8.77;2.20;;;15.30;73.40;;;;;;2460755;52;21314;-77
2022/12/22 14:02:46;;;;;;;6.62;2.05;;;15.30;74.20;;;;;;2360108;53;20922;-77
2022/12/22 14:05:14;;;;;;;8.50;1.48;;;15.30;73.30;;;;;;2369509;53;21265;-75
2022/12/22 14:07:59;;;;;;;9.77;2.72;;;15.30;74.40;;;;;;2530902;52;21267;-77
2022/12/22 14:10:36;;;;;;;7.95;1.67;;;15.20;73.90;;;;;;2622255;52;21002;-78
2022/12/22 14:13:05;;;;;;;12.55;2.70;;;15.20;74.40;;;;;;2369404;53;20946;-76
2022/12/22 14:15:32;;;;;;;9.85;2.40;;;15.10;74.50;;;;;;2429968;52;21030;-76
2022/12/22 14:17:58;;;;;;;8.43;2.20;;;15.20;74.80;;;;;;2548385;52;20922;-75
2022/12/22 14:20:28;;;;;;;8.00;1.85;;;15.10;74.80;;;;;;2369420;53;21321;-77
2022/12/22 14:23:23;;;;;;;6.68;1.48;;;15.10;74.80;;;;;;2422871;52;20970;-75
2022/12/22 14:25:50;;;;;;;11.18;2.10;;;15.10;74.20;;;;;;2346589;53;20950;-76
2022/12/22 14:28:34;;;;;;;10.10;2.10;;;15.10;74.80;;;;;;2379339;52;21380;-76
2022/12/22 14:31:01;;;;;;;7.65;1.90;;;15.10;74.70;;;;;;2341928;53;20960;-76
2022/12/22 14:33:30;;;;;;;6.87;2.47;;;15.10;74.90;;;;;;2336386;53;20956;-78
2022/12/22 14:42:44;;;;;;;7.40;2.15;;;15.10;75.00;;;;;;2386816;52;20991;-77
2022/12/22 14:45:19;;;;;;;5.10;1.65;;;15.20;74.00;;;;;;2588028;52;20929;-77
2022/12/22 14:47:46;;;;;;;8.63;1.67;;;15.10;74.50;;;;;;2347713;53;21453;-75
2022/12/22 14:50:25;;;;;;;9.00;1.52;;;15.10;75.70;;;;;;2341898;53;22405;-75
2022/12/22 14:52:58;;;;;;;7.93;1.48;;;15.10;74.60;;;;;;2338815;54;20932;-76
2022/12/22 14:55:30;;;;;;;3.58;0.90;;;15.10;75.00;;;;;;2344063;53;21514;-75
2022/12/22 14:57:59;;;;;;;6.57;1.40;;;15.10;75.10;;;;;;2342021;53;21328;-76
2022/12/22 15:00:34;;;;;;;8.25;1.70;;;15.10;75.00;;;;;;2341808;53;20889;-76
2022/12/22 15:03:39;;;;;;;7.47;1.60;;;15.10;74.90;;;;;;2342056;53;21463;-77
2022/12/22 15:06:44;;;;;;;7.95;1.50;;;15.00;74.90;;;;;;2347942;53;20984;-76
2022/12/22 15:09:30;;;;;;;11.45;1.95;;;15.10;74.40;;;;;;2465387;53;21008;-75
2022/12/22 15:12:26;;;;;;;6.75;1.37;;;15.00;74.20;;;;;;2412334;52;20929;-79
2022/12/22 15:14:52;;;;;;;6.95;1.52;;;15.00;74.90;;;;;;2340463;53;21000;-76
2022/12/22 15:17:20;;;;;;;5.78;1.42;;;15.00;74.90;;;;;;2341054;53;21454;-75
2022/12/22 15:19:47;;;;;;;8.05;1.85;;;15.00;74.90;;;;;;2587554;52;21040;-75
2022/12/22 15:22:13;;;;;;;9.60;1.58;;;15.00;75.60;;;;;;2550151;52;21025;-75
2022/12/22 15:24:54;;;;;;;9.63;1.77;;;15.00;74.80;;;;;;2362182;53;20974;-77
2022/12/22 15:27:20;;;;;;;7.22;1.50;;;15.00;74.30;;;;;;2369913;53;21049;-76
2022/12/22 15:29:47;;;;;;;10.05;1.77;;;14.90;74.70;;;;;;2369716;53;20922;-76
2022/12/22 15:32:13;;;;;;;6.15;2.03;;;14.90;74.70;;;;;;2370010;53;20942;-76
2022/12/22 15:35:35;;;;;;;9.40;1.92;;;14.90;74.70;;;;;;2369356;53;20942;-75
2022/12/22 15:38:01;;;;;;;5.10;1.37;;;14.90;74.00;;;;;;2622270;52;20926;-77
2022/12/22 15:40:27;;;;;;;6.50;1.27;;;14.90;74.60;;;;;;2457265;52;20978;-76
2022/12/22 15:42:54;;;;;;;11.88;2.60;;;14.90;74.60;;;;;;2621918;52;21372;-77
2022/12/22 15:45:20;;;;;;;6.18;1.77;;;14.90;74.50;;;;;;2368324;53;20906;-76
2022/12/22 15:47:49;;;;;;;8.40;2.20;;;14.80;74.40;;;;;;2369422;53;21299;-78
2022/12/22 15:50:39;;;;;;;7.25;2.30;;;14.90;74.50;;;;;;2368013;53;20938;-75
2022/12/22 15:53:08;;;;;;;9.77;2.35;;;14.80;74.30;;;;;;2369764;53;20901;-75
2022/12/22 15:55:45;;;;;;;9.57;3.05;;;14.80;74.50;;;;;;2372188;52;21348;-75
2022/12/22 15:58:13;;;;;;;12.02;2.70;;;14.80;74.50;;;;;;2369681;53;20913;-75
2022/12/22 16:00:39;;;;;;;9.27;2.22;;;14.80;74.60;;;;;;2369303;53;20927;-75
2022/12/22 16:03:05;;;;;;;5.37;2.20;;;14.70;74.50;;;;;;2453291;52;20923;-76
2022/12/22 16:05:32;;;;;;;8.65;2.40;;;14.70;74.60;;;;;;2369605;53;20978;-76
2022/12/22 16:07:59;;;;;;;9.98;2.28;;;14.70;74.70;;;;;;2442350;52;20926;-76
2022/12/22 16:10:27;;;;;;;9.40;2.50;;;14.70;74.80;;;;;;2403099;52;20974;-76
2022/12/22 16:13:02;;;;;;;8.20;2.30;;;14.70;74.80;;;;;;2365118;53;20927;-75
2022/12/22 16:15:30;;;;;;;10.35;1.85;;;14.70;74.60;;;;;;2358183;53;21450;-78
2022/12/22 16:18:00;;;;;;;8.75;2.00;;;14.70;75.00;;;;;;2358123;53;20949;-77
2022/12/22 16:20:27;;;;;;;13.05;2.10;;;14.70;74.90;;;;;;2547098;52;20906;-77
2022/12/22 16:22:55;;;;;;;7.78;1.85;;;14.70;75.00;;;;;;2361919;52;20935;-77
2022/12/22 16:25:26;;;;;;;8.40;2.17;;;14.70;75.10;;;;;;2410501;52;21428;-76
2022/12/22 16:27:53;;;;;;;12.65;2.65;;;14.70;75.00;;;;;;2361671;53;20919;-76
2022/12/22 16:30:28;;;;;;;7.62;1.73;;;14.70;75.10;;;;;;2361625;53;20930;-78
2022/12/22 16:32:54;;;;;;;9.25;2.17;;;14.70;75.00;;;;;;2361002;53;20938;-75
2022/12/22 16:35:22;;;;;;;8.82;2.15;;;14.70;75.20;;;;;;2445039;52;20934;-75
2022/12/22 16:37:48;;;;;;;10.00;2.05;;;14.70;75.20;;;;;;2361338;53;21217;-78
2022/12/22 16:40:17;;;;;;;9.93;2.00;;;14.70;75.20;;;;;;2361304;53;20894;-78
2022/12/22 16:43:03;;;;;;;11.82;2.20;;;14.70;75.20;;;;;;2503102;52;21475;-75
2022/12/22 16:45:47;;;;;;;9.15;2.35;;;14.80;74.60;;;;;;2414386;52;21317;-75
2022/12/22 16:48:24;;;;;;;9.93;2.58;;;14.70;75.30;;;;;;2360790;53;21904;-75
2022/12/22 16:50:53;;;;;;;10.00;1.92;;;14.80;75.10;;;;;;2612853;52;20954;-75
2022/12/22 16:53:20;;;;;;;8.75;2.25;;;14.80;75.30;;;;;;2543752;52;21060;-75
2022/12/22 16:55:46;;;;;;;8.00;1.60;;;14.80;75.40;;;;;;2333868;53;20932;-75
2022/12/22 16:58:13;;;;;;;8.25;1.62;;;14.80;75.40;;;;;;2334005;53;22231;-76
2022/12/22 17:00:43;;;;;;;6.18;1.48;;;14.80;75.40;;;;;;2579410;52;20956;-76
2022/12/22 17:06:38;;;;;;;8.50;1.77;;;14.80;74.80;;;;;;2364155;53;21020;-75
2022/12/22 17:12:34;;;;;;;11.18;2.03;;;14.80;74.80;;;;;;2522083;52;20973;-75
2022/12/22 17:15:02;;;;;;;12.35;2.87;;;14.80;75.40;;;;;;2339762;53;21097;-75
2022/12/22 17:17:29;;;;;;;10.13;1.92;;;14.80;75.50;;;;;;2333807;53;20948;-76
2022/12/22 17:19:58;;;;;;;8.50;1.73;;;14.90;75.60;;;;;;2314178;53;21555;-75
2022/12/22 17:22:32;;;;;;;10.25;2.08;;;14.90;75.60;;;;;;2306835;53;21088;-75
2022/12/22 17:25:00;;;;;;;7.93;1.60;;;14.90;75.40;;;;;;2306207;53;20945;-75
2022/12/22 17:27:29;;;;;;;7.87;1.70;;;14.90;75.60;;;;;;2342719;53;21940;-75
2022/12/22 17:29:55;;;;;;;8.32;2.35;;;14.90;75.60;;;;;;2307154;53;20952;-75
2022/12/22 17:32:22;;;;;;;11.02;3.05;;;14.90;75.60;;;;;;2306822;53;20997;-75
2022/12/22 17:34:48;;;;;;;7.47;2.55;;;14.90;75.60;;;;;;2307198;53;20940;-75
2022/12/22 17:37:16;;;;;;;9.95;2.55;;;14.90;75.60;;;;;;2307056;53;20949;-75
2022/12/22 17:39:43;;;;;;;8.05;1.85;;;14.80;75.40;;;;;;2306928;53;21084;-75
2022/12/22 17:42:19;;;;;;;9.57;2.28;;;14.90;75.40;;;;;;2315558;53;21036;-76
2022/12/22 17:44:48;;;;;;;9.50;2.60;;;14.90;75.20;;;;;;2314727;53;20965;-76
2022/12/22 17:47:16;;;;;;;6.75;1.90;;;15.00;75.40;;;;;;2306810;54;22038;-76
2022/12/22 17:49:42;;;;;;;7.20;1.58;;;14.90;75.40;;;;;;2311965;54;20997;-75
2022/12/22 17:52:19;;;;;;;7.87;1.33;;;14.90;75.30;;;;;;2369178;53;21549;-75
2022/12/22 17:54:46;;;;;;;6.43;1.90;;;15.00;75.30;;;;;;2399259;52;21062;-75
2022/12/22 17:57:21;;;;;;;6.65;1.48;;;15.00;75.50;;;;;;2375809;52;21208;-75
2022/12/22 17:59:48;;;;;;;4.95;1.08;;;15.00;75.30;;;;;;2488139;52;20922;-75
2022/12/22 18:02:20;;;;;;;7.78;1.50;;;14.90;75.40;;;;;;2329124;54;20925;-75
2022/12/22 18:04:49;;;;;;;6.72;1.87;;;14.90;75.30;;;;;;2333331;54;20974;-76
2022/12/22 18:07:17;;;;;;;6.60;1.60;;;15.00;75.30;;;;;;2386407;52;20919;-75
2022/12/22 18:09:45;;;;;;;6.10;1.35;;;15.00;75.40;;;;;;2333795;54;20989;-76
2022/12/22 18:12:21;;;;;;;6.72;1.60;;;14.90;75.30;;;;;;2397738;53;21033;-75